Terminal Aerodrome Forecast
Issued by NWS Detroit/Pontiac, MI

Home | Current Version | Previous Version | Text Only | Print | Product List | Glossary On
Versions: 1 2 3 4 5 6 7 8 9 10 11 12 13 14 15 16 17 18 19 20 21 22 23 24 25 26 27 28 29 30 31
000
FTUS43 KDTX 041120
TAFDTW
TAF
KDTW 041120Z 0412/0518 17003KT 6SM BR SCT008 BKN040
      TEMPO 0412/0414 4SM BR SCT007 BKN040
     FM041400 17006KT P6SM BKN040
     FM041800 17007KT P6SM BKN045
     FM050300 15003KT P6SM BKN040
     FM050800 VRB02KT 4SM BR BKN040=

USA.gov is the U.S. government's official web portal to all federal, state and local government web resources and services.